createdAt,value
2022-08-23T00:02:23.711Z,99.90
2022-08-23T00:05:07.846Z,99.90
2022-08-23T00:07:43.299Z,99.90
2022-08-23T00:10:12.720Z,99.90
2022-08-23T00:12:40.224Z,99.90
2022-08-23T00:15:09.707Z,99.90
2022-08-23T00:17:37.088Z,99.90
2022-08-23T00:20:09.654Z,99.90
2022-08-23T00:22:37.397Z,99.90
2022-08-23T00:25:06.063Z,99.90
2022-08-23T00:27:33.546Z,99.90
2022-08-23T00:30:00.947Z,99.90
2022-08-23T00:32:30.749Z,99.90
2022-08-23T00:34:59.023Z,99.90
2022-08-23T00:37:27.725Z,99.90
2022-08-23T00:39:54.664Z,99.90
2022-08-23T00:43:10.268Z,99.90
2022-08-23T00:46:08.947Z,99.90
2022-08-23T00:48:38.346Z,99.90
2022-08-23T00:51:24.187Z,99.90
2022-08-23T00:53:55.692Z,99.90
2022-08-23T00:56:25.513Z,99.90
2022-08-23T00:58:54.828Z,99.90
2022-08-23T01:01:24.629Z,99.90
2022-08-23T01:04:00.819Z,99.90
2022-08-23T01:07:02.190Z,99.90
2022-08-23T01:09:29.425Z,99.90
2022-08-23T01:12:06.101Z,99.90
2022-08-23T01:14:51.960Z,99.90
2022-08-23T01:17:26.995Z,99.90
2022-08-23T01:20:10.994Z,99.90
2022-08-23T01:23:07.283Z,99.90
2022-08-23T01:25:35.080Z,99.90
2022-08-23T01:28:02.164Z,99.90
2022-08-23T01:30:32.828Z,99.90
2022-08-23T01:33:03.631Z,99.90
2022-08-23T01:35:44.462Z,99.90
2022-08-23T01:38:12.503Z,99.90
2022-08-23T01:40:41.058Z,99.90
2022-08-23T01:43:09.111Z,99.90
2022-08-23T01:45:37.317Z,99.90
2022-08-23T01:48:06.881Z,99.90
2022-08-23T01:50:33.921Z,99.90
2022-08-23T01:53:01.934Z,99.90
2022-08-23T01:55:29.105Z,99.90
2022-08-23T01:57:59.042Z,99.90
2022-08-23T02:00:30.677Z,99.90
2022-08-23T02:02:59.473Z,99.90
2022-08-23T02:05:27.477Z,99.90
2022-08-23T02:07:54.454Z,99.90
2022-08-23T02:10:21.674Z,99.90
2022-08-23T02:12:48.856Z,99.90
2022-08-23T02:15:16.602Z,99.90
2022-08-23T02:17:44.516Z,99.90
2022-08-23T02:20:12.291Z,99.90
2022-08-23T02:22:39.691Z,99.90
2022-08-23T02:25:07.691Z,99.90
2022-08-23T02:27:34.587Z,99.90
2022-08-23T02:30:02.010Z,99.90
2022-08-23T02:32:31.920Z,99.90
2022-08-23T02:35:04.575Z,99.90
2022-08-23T02:37:33.547Z,99.90
2022-08-23T02:40:01.015Z,99.90
2022-08-23T02:42:28.522Z,99.90
2022-08-23T02:44:55.575Z,99.90
2022-08-23T02:47:23.274Z,99.90
2022-08-23T02:49:51.854Z,99.90
2022-08-23T02:52:18.929Z,99.90
2022-08-23T02:54:45.841Z,99.90
2022-08-23T02:57:13.204Z,99.90
2022-08-23T02:59:40.223Z,99.90
2022-08-23T03:02:07.210Z,99.90
2022-08-23T03:04:34.164Z,99.90
2022-08-23T03:07:01.132Z,99.90
2022-08-23T03:09:28.152Z,99.90
2022-08-23T03:11:55.256Z,99.90
2022-08-23T03:14:22.517Z,99.90
2022-08-23T03:16:49.520Z,99.90
2022-08-23T03:19:16.413Z,99.90
2022-08-23T03:21:43.512Z,99.90
2022-08-23T03:24:12.078Z,99.90
2022-08-23T03:26:44.410Z,99.90
2022-08-23T03:29:11.607Z,99.90
2022-08-23T03:31:38.601Z,99.90
2022-08-23T03:34:06.221Z,99.90
2022-08-23T03:36:33.393Z,99.90
2022-08-23T03:39:00.541Z,99.90
2022-08-23T03:41:27.845Z,99.90
2022-08-23T03:43:54.740Z,99.90
2022-08-23T03:46:24.682Z,99.90
2022-08-23T03:48:56.820Z,99.90
2022-08-23T03:51:24.601Z,99.90
2022-08-23T03:53:51.805Z,99.90
2022-08-23T03:56:26.788Z,99.90
2022-08-23T03:58:54.554Z,99.90
2022-08-23T04:01:25.266Z,99.90
2022-08-23T04:03:54.897Z,99.90
2022-08-23T04:06:21.839Z,99.90
2022-08-23T04:08:48.786Z,99.90
2022-08-23T04:11:15.776Z,99.90
2022-08-23T04:13:43.679Z,99.90
2022-08-23T04:16:11.125Z,99.90
2022-08-23T04:18:38.198Z,99.90
2022-08-23T04:21:12.795Z,99.90
2022-08-23T04:23:40.490Z,99.90
2022-08-23T04:26:09.598Z,99.90
2022-08-23T04:28:37.463Z,99.90
2022-08-23T04:31:05.041Z,99.90
2022-08-23T04:33:34.062Z,99.90
2022-08-23T04:36:02.203Z,99.90
2022-08-23T04:38:29.497Z,99.90
2022-08-23T04:41:15.953Z,99.90
2022-08-23T04:43:46.356Z,99.90
2022-08-23T04:46:15.466Z,99.90
2022-08-23T04:48:43.693Z,99.90
2022-08-23T04:51:11.055Z,99.90
2022-08-23T04:53:38.337Z,99.90
2022-08-23T04:56:07.296Z,99.90
2022-08-23T04:58:35.125Z,99.90
2022-08-23T05:01:05.151Z,99.90
2022-08-23T05:03:32.200Z,99.90
2022-08-23T05:05:59.517Z,99.90
2022-08-23T05:08:26.933Z,99.90
2022-08-23T05:10:54.306Z,99.90
2022-08-23T05:13:21.236Z,99.90
2022-08-23T05:15:52.668Z,99.90
2022-08-23T05:18:19.737Z,99.90
2022-08-23T05:20:46.884Z,99.90
2022-08-23T05:23:14.046Z,99.90
2022-08-23T05:25:52.487Z,99.90
2022-08-23T05:28:28.973Z,99.90
2022-08-23T05:30:58.941Z,99.90
2022-08-23T05:33:28.070Z,99.90
2022-08-23T05:35:55.284Z,99.90
2022-08-23T05:38:22.915Z,99.90
2022-08-23T05:40:54.997Z,99.90
2022-08-23T05:43:23.136Z,99.90
2022-08-23T05:46:02.547Z,99.90
2022-08-23T05:48:31.981Z,99.90
2022-08-23T05:51:28.288Z,99.90
2022-08-23T05:53:58.409Z,99.90
2022-08-23T05:56:31.687Z,99.90
2022-08-23T05:59:02.842Z,99.90
2022-08-23T06:01:30.888Z,99.90
2022-08-23T06:04:02.843Z,99.90
2022-08-23T06:06:36.413Z,99.90
2022-08-23T06:09:06.295Z,99.90
2022-08-23T06:11:33.658Z,99.90
2022-08-23T06:14:02.866Z,99.90
2022-08-23T06:16:32.844Z,99.90
2022-08-23T06:19:02.498Z,99.90
2022-08-23T06:21:31.078Z,99.90
2022-08-23T06:23:58.272Z,99.90
2022-08-23T06:26:31.727Z,99.90
2022-08-23T06:29:05.592Z,99.90
2022-08-23T06:31:51.124Z,99.90
2022-08-23T06:34:32.377Z,99.90
2022-08-23T06:37:05.611Z,99.90
2022-08-23T06:39:36.895Z,99.90
2022-08-23T06:42:38.091Z,99.90
2022-08-23T06:45:04.219Z,99.90
2022-08-23T06:47:31.797Z,99.90
2022-08-23T06:49:59.031Z,99.90
2022-08-23T06:52:28.403Z,99.90
2022-08-23T06:54:55.820Z,99.90
2022-08-23T06:57:24.788Z,99.90
2022-08-23T06:59:51.664Z,99.90
2022-08-23T07:02:18.710Z,99.90
2022-08-23T07:04:45.705Z,99.90
2022-08-23T07:07:12.975Z,99.90
2022-08-23T07:09:41.220Z,99.90
2022-08-23T07:12:09.075Z,99.90
2022-08-23T07:14:38.045Z,99.90
2022-08-23T07:17:05.476Z,99.90
2022-08-23T07:19:34.453Z,99.90
2022-08-23T07:22:02.599Z,99.90
2022-08-23T07:24:33.550Z,99.90
2022-08-23T07:27:06.233Z,99.90
2022-08-23T07:29:35.603Z,99.90
2022-08-23T07:32:03.513Z,99.90
2022-08-23T07:34:30.521Z,99.90
2022-08-23T07:36:57.465Z,99.90
2022-08-23T07:39:26.593Z,99.90
2022-08-23T07:41:53.636Z,99.90
2022-08-23T07:44:27.090Z,99.90
2022-08-23T07:46:54.570Z,99.90
2022-08-23T07:49:21.774Z,99.90
2022-08-23T07:54:18.337Z,99.90
2022-08-23T07:56:45.898Z,99.90
2022-08-23T07:59:13.086Z,99.90
2022-08-23T08:01:42.438Z,99.90
2022-08-23T08:04:09.444Z,99.90
2022-08-23T08:06:39.986Z,99.90
2022-08-23T08:09:07.313Z,99.90
2022-08-23T08:11:35.796Z,99.90
2022-08-23T08:14:08.892Z,99.90
2022-08-23T08:16:39.572Z,99.90
2022-08-23T08:19:09.494Z,99.90
2022-08-23T08:21:41.990Z,99.90
2022-08-23T08:24:10.689Z,99.90
2022-08-23T08:26:37.779Z,99.90
2022-08-23T08:29:05.278Z,99.90
2022-08-23T08:31:32.562Z,99.90
2022-08-23T08:33:59.581Z,99.90
2022-08-23T08:36:35.929Z,99.90
2022-08-23T08:39:06.184Z,99.90
2022-08-23T08:42:05.275Z,99.90
2022-08-23T08:44:49.789Z,99.90
2022-08-23T08:47:27.831Z,99.90
2022-08-23T08:50:06.232Z,99.90
2022-08-23T08:52:37.980Z,99.90
2022-08-23T08:55:13.039Z,99.90
2022-08-23T08:57:43.659Z,99.90
2022-08-23T09:00:14.983Z,99.90
2022-08-23T09:02:42.622Z,99.90
2022-08-23T09:05:20.892Z,99.90
2022-08-23T09:07:56.444Z,99.90
2022-08-23T09:10:52.173Z,99.90
2022-08-23T09:13:34.297Z,99.90
2022-08-23T09:16:32.645Z,99.90
2022-08-23T09:19:03.193Z,99.90
2022-08-23T09:21:58.233Z,99.90
2022-08-23T09:24:26.505Z,99.90
2022-08-23T09:26:53.978Z,99.90
2022-08-23T09:29:32.089Z,99.90
2022-08-23T09:32:06.615Z,99.90
2022-08-23T09:34:36.041Z,99.90
2022-08-23T09:37:07.585Z,99.90
2022-08-23T09:39:38.246Z,99.90
2022-08-23T09:42:28.802Z,99.90
2022-08-23T09:44:56.582Z,99.90
2022-08-23T09:47:33.420Z,99.90
2022-08-23T09:50:17.774Z,99.90
2022-08-23T09:52:47.722Z,99.90
2022-08-23T09:55:35.180Z,99.90
2022-08-23T09:58:24.376Z,99.90
2022-08-23T10:01:06.813Z,99.90
2022-08-23T10:03:33.749Z,99.90
2022-08-23T10:06:01.632Z,99.90
2022-08-23T10:08:33.030Z,99.90
2022-08-23T10:11:25.937Z,99.90
2022-08-23T10:13:54.880Z,99.90
2022-08-23T10:16:40.841Z,99.90
2022-08-23T10:19:23.160Z,99.90
2022-08-23T10:22:14.278Z,99.90
2022-08-23T10:24:46.968Z,97.60
2022-08-23T10:27:59.009Z,98.30
2022-08-23T10:30:42.056Z,99.60
2022-08-23T10:33:26.764Z,99.00
2022-08-23T10:36:23.502Z,99.70
2022-08-23T10:39:06.370Z,98.50
2022-08-23T10:41:57.036Z,99.20
2022-08-23T10:44:29.232Z,98.80
2022-08-23T10:47:33.549Z,99.50
2022-08-23T10:50:07.453Z,99.90
2022-08-23T10:52:50.593Z,99.90
2022-08-23T10:55:39.137Z,99.90
2022-08-23T10:58:11.631Z,99.90
2022-08-23T11:00:39.770Z,99.90
2022-08-23T11:03:19.233Z,99.90
2022-08-23T11:06:25.016Z,99.90
2022-08-23T11:09:07.665Z,99.90
2022-08-23T11:11:40.616Z,99.90
2022-08-23T11:14:31.481Z,99.90
2022-08-23T11:17:02.808Z,99.90
2022-08-23T11:20:00.885Z,99.90
2022-08-23T11:22:30.976Z,99.90
2022-08-23T11:25:05.156Z,99.90
2022-08-23T11:27:34.889Z,99.90
2022-08-23T11:30:32.899Z,99.90
2022-08-23T11:33:08.448Z,99.90
2022-08-23T11:35:51.296Z,99.90
2022-08-23T11:38:47.130Z,99.90
2022-08-23T11:41:19.818Z,99.90
2022-08-23T11:44:06.722Z,99.90
2022-08-23T11:46:48.347Z,99.90
2022-08-23T11:49:18.196Z,99.90
2022-08-23T11:52:11.988Z,99.90
2022-08-23T11:55:00.709Z,99.90
2022-08-23T11:57:38.620Z,99.90
2022-08-23T12:00:29.105Z,99.90
2022-08-23T12:03:36.387Z,99.90
2022-08-23T12:06:03.617Z,99.90
2022-08-23T12:08:46.134Z,99.90
2022-08-23T12:11:14.396Z,98.50
2022-08-23T12:13:49.680Z,94.90
2022-08-23T12:16:17.713Z,92.40
2022-08-23T12:18:54.223Z,90.60
2022-08-23T12:21:45.840Z,92.00
2022-08-23T12:24:15.514Z,90.30
2022-08-23T12:26:42.352Z,86.30
2022-08-23T12:29:21.334Z,87.50
2022-08-23T12:32:11.658Z,89.00
2022-08-23T12:35:02.659Z,89.00
2022-08-23T12:37:57.868Z,99.90
2022-08-23T12:40:36.573Z,91.20
2022-08-23T12:43:27.097Z,92.00
2022-08-23T12:45:57.496Z,91.90
2022-08-23T12:48:27.381Z,92.40
2022-08-23T12:51:03.346Z,91.70
2022-08-23T12:53:45.129Z,88.00
2022-08-23T12:56:32.193Z,84.90
2022-08-23T12:59:06.935Z,89.50
2022-08-23T13:01:40.149Z,88.50
2022-08-23T13:04:11.889Z,82.00
2022-08-23T13:06:52.609Z,80.10
2022-08-23T13:09:30.765Z,79.90
2022-08-23T13:11:59.079Z,79.00
2022-08-23T13:14:37.385Z,78.70
2022-08-23T13:17:26.198Z,79.20
2022-08-23T13:20:01.981Z,77.00
2022-08-23T13:22:31.274Z,77.00
2022-08-23T13:27:57.426Z,78.60
2022-08-23T13:30:36.936Z,78.70
2022-08-23T13:33:10.565Z,78.80
2022-08-23T13:35:43.512Z,80.40
2022-08-23T13:38:20.987Z,83.40
2022-08-23T13:41:30.434Z,98.30
2022-08-23T13:43:57.734Z,89.80
2022-08-23T13:46:31.066Z,90.60
2022-08-23T13:51:41.338Z,91.20
2022-08-23T13:54:11.353Z,92.00
2022-08-23T13:56:51.017Z,92.80
2022-08-23T13:59:31.673Z,92.80
2022-08-23T14:02:05.314Z,93.90
2022-08-23T14:04:32.416Z,93.80
2022-08-23T14:06:59.271Z,94.30
2022-08-23T14:09:26.190Z,95.20
2022-08-23T14:11:57.531Z,95.80
2022-08-23T14:14:25.245Z,95.50
2022-08-23T14:16:54.483Z,96.20
2022-08-23T14:22:08.448Z,96.60
2022-08-23T14:24:35.581Z,96.70
2022-08-23T14:27:02.544Z,96.20
2022-08-23T14:29:29.530Z,95.80
2022-08-23T14:31:58.775Z,95.80
2022-08-23T14:34:26.980Z,96.10
2022-08-23T14:39:41.038Z,95.50
2022-08-23T14:42:08.283Z,95.50
2022-08-23T14:44:36.407Z,95.40
2022-08-23T14:47:05.367Z,95.10
2022-08-23T14:49:32.627Z,95.50
2022-08-23T14:51:59.710Z,95.70
2022-08-23T14:54:26.737Z,96.00
2022-08-23T14:56:54.225Z,96.10
2022-08-23T14:59:21.810Z,96.40
2022-08-23T15:01:50.804Z,96.50
2022-08-23T15:04:20.257Z,96.40
2022-08-23T15:07:13.817Z,96.40
2022-08-23T15:09:35.067Z,96.10
2022-08-23T15:14:49.999Z,96.70
2022-08-23T15:17:16.976Z,96.40
2022-08-23T15:19:44.050Z,96.80
2022-08-23T15:22:21.864Z,96.40
2022-08-23T15:24:49.623Z,96.90
2022-08-23T15:27:18.614Z,97.20
2022-08-23T15:29:45.891Z,97.00
2022-08-23T15:32:13.014Z,97.10
2022-08-23T15:34:45.502Z,96.70
2022-08-23T15:37:13.779Z,96.40
2022-08-23T15:39:42.312Z,96.70
2022-08-23T15:42:09.437Z,96.60
2022-08-23T15:44:36.383Z,96.60
2022-08-23T15:47:05.826Z,96.70
2022-08-23T15:49:36.560Z,96.90
2022-08-23T15:52:04.634Z,97.00
2022-08-23T15:54:31.863Z,97.60
2022-08-23T15:56:58.799Z,97.60
2022-08-23T15:59:26.053Z,97.70
2022-08-23T16:01:53.757Z,97.70
2022-08-23T16:04:21.034Z,97.70
2022-08-23T16:06:48.366Z,97.70
2022-08-23T16:09:21.169Z,97.50
2022-08-23T16:11:48.400Z,97.60
2022-08-23T16:14:15.420Z,97.30
2022-08-23T16:16:42.714Z,97.40
2022-08-23T16:19:10.033Z,97.60
2022-08-23T16:21:37.480Z,97.90
2022-08-23T16:24:05.803Z,97.40
2022-08-23T16:26:37.484Z,98.00
2022-08-23T16:29:10.387Z,99.20
2022-08-23T16:31:39.984Z,98.90
2022-08-23T16:34:14.711Z,98.90
2022-08-23T16:36:44.880Z,99.30
2022-08-23T16:39:14.107Z,99.70
2022-08-23T16:41:41.133Z,99.90
2022-08-23T16:44:08.173Z,99.90
2022-08-23T16:46:35.830Z,99.90
2022-08-23T16:49:02.867Z,99.90
2022-08-23T16:51:29.793Z,99.90
2022-08-23T16:54:01.770Z,99.90
2022-08-23T16:56:32.245Z,99.90
2022-08-23T16:58:59.833Z,99.90
2022-08-23T17:01:27.531Z,99.90
2022-08-23T17:03:54.548Z,99.90
2022-08-23T17:06:22.083Z,99.90
2022-08-23T17:08:49.197Z,99.90
2022-08-23T17:11:19.217Z,99.90
2022-08-23T17:13:46.417Z,99.90
2022-08-23T17:16:13.506Z,99.90
2022-08-23T17:18:40.627Z,99.90
2022-08-23T17:21:09.303Z,99.60
2022-08-23T17:23:40.554Z,99.60
2022-08-23T17:26:09.803Z,99.60
2022-08-23T17:28:36.830Z,99.90
2022-08-23T17:31:03.986Z,99.90
2022-08-23T17:33:31.208Z,99.90
2022-08-23T17:35:58.219Z,99.90
2022-08-23T17:38:25.153Z,99.90
2022-08-23T17:40:52.964Z,99.90
2022-08-23T17:43:19.930Z,99.90
2022-08-23T17:45:50.373Z,99.90
2022-08-23T17:48:19.252Z,99.90
2022-08-23T17:50:47.459Z,99.90
2022-08-23T17:53:15.808Z,99.90
2022-08-23T17:55:43.752Z,99.90
2022-08-23T17:58:11.639Z,99.90
2022-08-23T18:00:40.306Z,99.90
2022-08-23T18:03:07.426Z,99.90
2022-08-23T18:05:37.324Z,99.90
2022-08-23T18:08:04.489Z,99.90
2022-08-23T18:10:31.857Z,99.90
2022-08-23T18:12:59.018Z,99.90
2022-08-23T18:15:29.574Z,99.90
2022-08-23T18:18:00.297Z,99.90
2022-08-23T18:20:28.751Z,99.90
2022-08-23T18:22:57.527Z,99.90
2022-08-23T18:25:25.609Z,99.90
2022-08-23T18:28:08.591Z,99.90
2022-08-23T18:30:35.582Z,99.90
2022-08-23T18:33:03.232Z,99.90
2022-08-23T18:35:32.551Z,99.90
2022-08-23T18:37:59.621Z,99.90
2022-08-23T18:40:28.095Z,99.90
2022-08-23T18:42:55.179Z,99.90
2022-08-23T18:45:22.487Z,99.90
2022-08-23T18:47:50.102Z,99.90
2022-08-23T18:50:18.411Z,99.90
2022-08-23T18:52:45.369Z,99.90
2022-08-23T18:55:12.369Z,99.90
2022-08-23T18:57:39.369Z,99.90
2022-08-23T19:00:10.247Z,99.90
2022-08-23T19:02:37.168Z,99.90
2022-08-23T19:05:04.822Z,99.90
2022-08-23T19:07:32.557Z,99.90
2022-08-23T19:10:01.294Z,99.90
2022-08-23T19:12:28.676Z,99.90
2022-08-23T19:14:56.125Z,99.90
2022-08-23T19:17:23.178Z,99.90
2022-08-23T19:19:50.705Z,99.90
2022-08-23T19:22:17.736Z,99.90
2022-08-23T19:24:44.809Z,99.90
2022-08-23T19:27:12.384Z,99.90
2022-08-23T19:29:39.346Z,99.90
2022-08-23T19:32:06.617Z,99.90
2022-08-23T19:34:33.738Z,99.90
2022-08-23T19:37:01.633Z,99.90
2022-08-23T19:39:29.728Z,99.90
2022-08-23T19:41:57.321Z,99.90
2022-08-23T19:44:24.447Z,99.90
2022-08-23T19:46:51.478Z,99.90
2022-08-23T19:49:18.510Z,99.90
2022-08-23T19:51:45.443Z,99.90
2022-08-23T19:54:13.803Z,99.90
2022-08-23T19:56:45.804Z,99.90
2022-08-23T19:59:20.713Z,99.90
2022-08-23T20:01:49.869Z,99.90
2022-08-23T20:04:17.738Z,99.90
2022-08-23T20:06:45.558Z,99.90
2022-08-23T20:09:12.832Z,99.90
2022-08-23T20:11:40.027Z,99.90
2022-08-23T20:14:07.705Z,99.90
2022-08-23T20:16:34.951Z,99.90
2022-08-23T20:19:03.581Z,99.90
2022-08-23T20:21:30.471Z,99.90
2022-08-23T20:24:04.308Z,99.90
2022-08-23T20:26:40.853Z,99.90
2022-08-23T20:29:28.068Z,99.90
2022-08-23T20:31:57.556Z,99.90
2022-08-23T20:34:26.455Z,99.90
2022-08-23T20:36:56.289Z,99.90
2022-08-23T20:39:24.351Z,99.90
2022-08-23T20:41:53.134Z,99.90
2022-08-23T20:44:22.200Z,99.90
2022-08-23T20:46:54.159Z,99.90
2022-08-23T20:49:23.719Z,99.90
2022-08-23T20:51:51.081Z,99.90
2022-08-23T20:54:18.592Z,99.90
2022-08-23T20:56:45.844Z,99.90
2022-08-23T20:59:14.732Z,99.90
2022-08-23T21:01:41.695Z,99.90
2022-08-23T21:04:08.725Z,99.90
2022-08-23T21:06:45.322Z,99.90
2022-08-23T21:09:17.038Z,99.90
2022-08-23T21:11:45.193Z,99.90
2022-08-23T21:14:15.185Z,99.90
2022-08-23T21:16:42.402Z,99.90
2022-08-23T21:19:09.778Z,99.90
2022-08-23T21:21:40.827Z,99.90
2022-08-23T21:24:09.538Z,99.90
2022-08-23T21:26:37.372Z,99.90
2022-08-23T21:29:05.696Z,99.90
2022-08-23T21:31:32.854Z,99.90
2022-08-23T21:34:02.817Z,99.90
2022-08-23T21:36:30.152Z,99.90
2022-08-23T21:38:57.079Z,99.90
2022-08-23T21:41:39.665Z,99.90
2022-08-23T21:44:17.975Z,99.90
2022-08-23T21:46:45.600Z,99.90
2022-08-23T21:49:12.942Z,99.90
2022-08-23T21:51:41.049Z,99.90
2022-08-23T21:54:10.189Z,99.90
2022-08-23T21:56:37.868Z,99.90
2022-08-23T21:59:07.393Z,99.90
2022-08-23T22:01:35.714Z,99.90
2022-08-23T22:04:04.740Z,99.90
2022-08-23T22:06:32.294Z,99.90
2022-08-23T22:08:59.233Z,99.90
2022-08-23T22:11:26.173Z,99.90
2022-08-23T22:13:53.958Z,99.90
2022-08-23T22:16:21.141Z,99.90
2022-08-23T22:18:48.238Z,99.90
2022-08-23T22:21:15.333Z,99.90
2022-08-23T22:23:44.591Z,99.90
2022-08-23T22:26:13.705Z,99.90
2022-08-23T22:28:44.764Z,99.90
2022-08-23T22:31:14.427Z,99.90
2022-08-23T22:33:43.581Z,99.90
2022-08-23T22:36:14.172Z,99.90
2022-08-23T22:38:41.160Z,99.90
2022-08-23T22:41:08.161Z,99.90
2022-08-23T22:43:35.641Z,99.90
2022-08-23T22:46:05.046Z,99.90
2022-08-23T22:48:34.366Z,99.90
2022-08-23T22:51:22.384Z,99.90
2022-08-23T22:53:52.207Z,99.90
2022-08-23T22:56:22.205Z,99.90
2022-08-23T22:58:51.688Z,99.90
2022-08-23T23:01:27.167Z,99.90
2022-08-23T23:03:57.241Z,99.90
2022-08-23T23:06:24.917Z,99.90
2022-08-23T23:08:52.989Z,99.90
2022-08-23T23:11:21.440Z,99.90
2022-08-23T23:13:49.253Z,99.90
2022-08-23T23:16:22.436Z,99.90
2022-08-23T23:19:08.681Z,99.90
2022-08-23T23:21:42.461Z,99.90
2022-08-23T23:24:12.540Z,99.90
2022-08-23T23:26:40.197Z,99.90
2022-08-23T23:29:08.538Z,99.90
2022-08-23T23:31:36.457Z,99.90
2022-08-23T23:34:03.850Z,99.90
2022-08-23T23:36:30.941Z,99.90
2022-08-23T23:38:58.216Z,99.90
2022-08-23T23:41:25.556Z,99.90
2022-08-23T23:43:52.690Z,99.90
2022-08-23T23:46:20.848Z,99.90
2022-08-23T23:48:50.027Z,99.90
2022-08-23T23:51:29.320Z,99.90
2022-08-23T23:53:59.080Z,99.90
2022-08-23T23:56:29.482Z,99.90
2022-08-23T23:58:56.980Z,99.90
